Time;durP1;ratioP1;P1;durP2;ratioP2;P2;SDS_P1;SDS_P2;PMS_P1;PMS_P2;Temp;Humidity;BMP_temperature;BMP_pressure;BME280_temperature;BME280_humidity;BME280_pressure;Samples;Min_cycle;Max_cycle;Signal;HPM_P1;HPM_P2
2021/04/02 00:01:51;;;;;;;30.00;17.55;;;;;;;5.81;64.11;100231.59;3568425;40;20053;-71
2021/04/02 00:04:17;;;;;;;30.60;18.08;;;;;;;6.17;64.04;100233.09;3567729;40;20057;-71
2021/04/02 00:06:43;;;;;;;29.15;18.02;;;;;;;5.60;65.43;100231.69;3567237;40;20062;-70
2021/04/02 00:09:08;;;;;;;28.58;17.58;;;;;;;5.57;66.01;100209.00;3548333;40;20126;-71
2021/04/02 00:11:33;;;;;;;25.58;15.50;;;;;;;5.92;64.13;100222.34;3548198;40;20066;-71
2021/04/02 00:13:59;;;;;;;26.05;15.43;;;;;;;5.74;65.09;100200.53;3548844;40;20067;-71
2021/04/02 00:21:26;;;;;;;23.25;14.88;;;;;;;5.82;65.34;100211.41;4061864;34;20052;31
2021/04/02 00:23:55;;;;;;;21.85;13.75;;;;;;;5.94;64.42;100197.94;4056323;34;20024;31
2021/04/02 00:59:26;;;;;;;23.80;16.15;;;;;;;5.13;69.43;100182.28;4066815;34;20161;31
2021/04/02 01:04:46;;;;;;;28.87;16.60;;;;;;;5.00;69.40;100185.69;4088133;34;20185;31
2021/04/02 01:17:33;;;;;;;25.95;17.20;;;;;;;4.62;71.82;100172.31;4084130;34;20024;31
2021/04/02 01:25:09;;;;;;;22.63;15.67;;;;;;;4.96;69.38;100168.91;4084279;34;20160;31
2021/04/02 01:27:57;;;;;;;23.40;15.90;;;;;;;4.73;71.69;100158.03;4065528;34;20445;31
2021/04/02 01:30:48;;;;;;;24.88;15.63;;;;;;;5.29;69.62;100167.94;4069513;34;20478;31
2021/04/02 01:38:25;;;;;;;22.70;14.88;;;;;;;4.51;71.24;100158.91;3577162;39;20057;-71
2021/04/02 01:40:55;;;;;;;27.35;15.85;;;;;;;4.65;70.65;100146.31;3578354;40;20060;-72
2021/04/02 01:43:28;;;;;;;25.25;15.82;;;;;;;4.94;70.28;100135.31;3578336;39;20052;-70
2021/04/02 01:48:26;;;;;;;21.88;15.75;;;;;;;4.58;71.26;100149.66;4015107;34;20048;31
2021/04/02 01:51:17;;;;;;;27.87;16.10;;;;;;;4.68;69.66;100142.09;4070989;34;20051;31
2021/04/02 01:56:17;;;;;;;22.23;14.70;;;;;;;4.82;67.50;100095.06;4086036;34;21972;31
2021/04/02 02:11:14;;;;;;;21.92;13.43;;;;;;;4.46;68.83;100144.66;3579054;40;20300;-70
2021/04/02 02:13:51;;;;;;;21.77;14.27;;;;;;;3.91;68.88;100133.72;3569896;40;20066;-70
2021/04/02 02:16:21;;;;;;;23.00;14.32;;;;;;;4.17;68.38;100127.03;3567122;40;20073;-70
2021/04/02 02:18:53;;;;;;;24.60;15.32;;;;;;;4.00;68.93;100133.75;3566456;40;20051;-70
2021/04/02 02:21:20;;;;;;;25.88;15.82;;;;;;;3.83;69.85;100135.38;3565521;40;20050;-70
2021/04/02 02:23:45;;;;;;;21.40;14.00;;;;;;;4.43;67.82;100130.38;3566638;40;20077;-70
2021/04/02 02:26:12;;;;;;;21.67;13.95;;;;;;;3.89;69.40;100118.66;3567142;40;20514;-70
2021/04/02 02:28:37;;;;;;;21.15;12.88;;;;;;;3.93;69.21;100135.41;3565976;40;20070;-70
2021/04/02 02:31:05;;;;;;;21.67;13.13;;;;;;;3.80;69.94;100126.19;3565955;40;20062;-71
2021/04/02 02:33:31;;;;;;;21.40;12.43;;;;;;;3.96;68.62;100111.94;3547019;40;20190;-69
2021/04/02 02:35:59;;;;;;;21.25;12.65;;;;;;;3.65;70.13;100090.09;3546581;40;20055;-69
2021/04/02 02:38:25;;;;;;;19.38;12.38;;;;;;;3.85;69.62;100109.41;3546086;40;20074;-69
2021/04/02 02:40:51;;;;;;;19.23;12.23;;;;;;;3.60;71.55;100111.91;3546065;40;20145;-69
2021/04/02 02:43:17;;;;;;;19.60;12.52;;;;;;;3.45;71.31;100103.47;3537010;40;20063;-70
2021/04/02 02:45:42;;;;;;;20.15;12.73;;;;;;;3.56;70.85;100097.66;3537915;40;20634;-69
2021/04/02 02:48:09;;;;;;;22.60;13.60;;;;;;;3.56;72.67;100101.00;3537797;40;20056;-70
2021/04/02 02:50:38;;;;;;;22.25;13.45;;;;;;;3.76;71.58;100094.34;3538871;40;20055;-69
2021/04/02 02:53:05;;;;;;;22.55;15.02;;;;;;;3.85;70.78;100091.81;3538102;40;20671;-69
2021/04/02 02:55:34;;;;;;;37.55;22.88;;;;;;;3.76;72.12;100096.00;3538242;40;20146;-70
2021/04/02 02:58:01;;;;;;;45.88;29.80;;;;;;;4.16;69.38;100067.53;3538122;40;20398;-69
2021/04/02 03:00:34;;;;;;;48.47;31.88;;;;;;;4.19;70.48;100100.22;3539191;40;20094;-70
2021/04/02 03:03:03;;;;;;;48.90;30.92;;;;;;;4.24;70.49;100093.47;3538250;40;20056;-70
2021/04/02 03:05:30;;;;;;;52.08;30.15;;;;;;;4.04;70.07;100097.72;3537462;40;20369;-70
2021/04/02 03:13:57;;;;;;;101.30;53.40;;;;;;;4.32;70.52;100104.38;3557894;40;21113;-70
2021/04/02 03:16:25;;;;;;;56.40;31.02;;;;;;;4.64;69.22;100095.09;3547327;40;20066;-69
2021/04/02 03:21:20;;;;;;;46.28;24.73;;;;;;;4.64;68.15;100076.63;3577385;40;20077;-71
2021/04/02 03:26:16;;;;;;;43.55;22.90;;;;;;;3.86;69.91;100072.56;3568248;40;20066;-70
2021/04/02 03:28:43;;;;;;;67.47;37.58;;;;;;;3.98;69.51;100080.09;3554801;40;20079;-70
2021/04/02 03:31:10;;;;;;;49.25;29.58;;;;;;;4.27;69.44;100073.38;3556652;40;20451;-71
2021/04/02 03:33:40;;;;;;;42.80;25.05;;;;;;;4.36;68.15;100088.44;3557811;40;20380;-71
2021/04/02 03:36:11;;;;;;;37.50;23.13;;;;;;;3.89;70.90;100085.09;3558452;40;20062;-70
2021/04/02 03:38:41;;;;;;;40.97;25.55;;;;;;;4.30;70.30;100090.97;3557104;40;20070;-70
2021/04/02 03:41:13;;;;;;;34.60;22.35;;;;;;;4.31;69.79;100077.56;3557733;40;20133;-69
2021/04/02 03:48:40;;;;;;;40.60;23.02;;;;;;;4.24;70.48;100094.31;3981545;34;20468;31
2021/04/02 03:51:08;;;;;;;32.75;18.92;;;;;;;3.87;70.78;100084.28;3543721;40;20380;-69
2021/04/02 03:53:41;;;;;;;32.50;18.67;;;;;;;4.39;68.32;100093.47;3535311;40;20052;-68
2021/04/02 03:56:10;;;;;;;30.40;16.45;;;;;;;3.98;69.84;100087.66;3538146;40;20063;-69
2021/04/02 03:58:40;;;;;;;28.83;15.32;;;;;;;4.13;69.77;100092.66;3538334;40;20058;-70
2021/04/02 04:03:42;;;;;;;38.85;21.70;;;;;;;3.98;69.16;100090.16;3557324;40;20070;-67
2021/04/02 04:09:08;;;;;;;45.80;28.70;;;;;;;3.61;69.64;100093.44;4070948;34;20280;31
2021/04/02 04:24:11;;;;;;;45.90;28.02;;;;;;;3.77;70.69;100085.94;4064840;34;20061;31
2021/04/02 04:27:02;;;;;;;56.40;34.13;;;;;;;3.57;72.75;100109.34;4074167;34;20394;31
2021/04/02 04:29:54;;;;;;;45.72;28.17;;;;;;;3.82;71.66;100103.56;4049916;34;20044;31
2021/04/02 04:52:39;;;;;;;81.70;46.25;;;;;;;4.19;72.31;100112.78;4067325;34;20078;31
2021/04/02 05:00:30;;;;;;;55.47;35.67;;;;;;;4.55;71.94;100115.28;4066176;34;20569;31
2021/04/02 05:22:51;;;;;;;42.50;28.00;;;;;;;5.13;71.56;100071.41;4075001;34;22525;31
2021/04/02 05:25:43;;;;;;;41.70;27.10;;;;;;;5.89;68.67;100106.28;4060581;34;20044;31
2021/04/02 05:31:02;;;;;;;55.60;36.20;;;;;;;6.32;66.21;100107.63;4066647;34;20032;31
2021/04/02 05:43:56;;;;;;;33.80;23.25;;;;;;;7.09;64.93;100100.94;4052974;34;20483;31
2021/04/02 05:53:55;;;;;;;32.17;17.87;;;;;;;7.62;64.79;100070.72;4075974;34;20058;31
2021/04/02 05:56:26;;;;;;;26.75;16.58;;;;;;;7.24;66.12;100068.72;4056791;34;20034;31
2021/04/02 06:04:47;;;;;;;28.53;19.33;;;;;;;7.58;66.61;100086.78;4140941;31;20387;31
2021/04/02 06:22:33;;;;;;;30.63;19.80;;;;;;;8.23;67.30;100086.63;4062753;34;20946;31
2021/04/02 06:35:25;;;;;;;30.57;19.33;;;;;;;8.15;67.13;100090.97;4089526;34;20508;31
2021/04/02 06:55:39;;;;;;;30.15;20.73;;;;;;;8.97;64.51;100077.69;4096708;34;20993;31
2021/04/02 07:15:37;;;;;;;23.15;17.35;;;;;;;10.58;60.20;100067.16;4094158;34;20663;31
2021/04/02 07:18:28;;;;;;;28.77;19.23;;;;;;;9.50;62.91;100056.25;4077888;34;20539;31
2021/04/02 07:26:16;;;;;;;26.70;18.00;;;;;;;9.68;63.99;100062.59;4091318;34;20061;31
2021/04/02 07:31:17;;;;;;;47.27;31.43;;;;;;;10.12;62.17;100060.69;4094737;34;20599;31
2021/04/02 07:34:09;;;;;;;29.25;20.63;;;;;;;9.81;63.06;100064.81;4081167;34;20226;31
2021/04/02 07:56:42;;;;;;;27.30;18.40;;;;;;;10.59;59.29;100006.09;4096923;34;20556;31
2021/04/02 07:59:34;;;;;;;27.08;17.73;;;;;;;11.61;55.81;100034.41;4096330;34;20043;31
2021/04/02 08:22:39;;;;;;;20.43;15.77;;;;;;;13.61;51.46;100000.91;4093416;34;20077;31
2021/04/02 08:30:28;;;;;;;22.75;15.60;;;;;;;13.16;51.94;99998.44;4094972;34;20637;31
2021/04/02 08:40:46;;;;;;;22.20;16.23;;;;;;;13.21;52.99;99985.50;4088922;34;20047;31
2021/04/02 09:00:41;;;;;;;21.25;16.75;;;;;;;13.72;52.59;99935.72;4097920;34;20043;31
2021/04/02 09:03:32;;;;;;;23.45;16.33;;;;;;;13.89;53.02;99958.84;4092027;34;20077;31
2021/04/02 09:11:21;;;;;;;18.00;13.07;;;;;;;14.43;49.82;99949.72;4095434;34;20585;31
2021/04/02 09:43:55;;;;;;;17.63;13.80;;;;;;;16.77;44.75;99908.19;4093630;34;22270;31
2021/04/02 09:46:50;;;;;;;17.37;13.83;;;;;;;16.98;44.53;99917.28;4094572;34;20175;31
2021/04/02 10:01:46;;;;;;;21.43;16.07;;;;;;;18.06;42.17;99863.00;4094698;34;21012;31
2021/04/02 10:04:37;;;;;;;16.83;13.73;;;;;;;17.47;43.75;99881.13;4081026;34;20054;31
2021/04/02 10:15:16;;;;;;;18.83;13.00;;;;;;;18.13;42.01;99862.53;4092421;34;20581;31
2021/04/02 10:27:42;;;;;;;15.63;11.82;;;;;;;18.30;40.87;99812.63;4093431;34;20068;31
2021/04/02 10:30:33;;;;;;;14.48;11.32;;;;;;;17.69;42.51;99837.84;4093871;34;20027;31
2021/04/02 10:51:09;;;;;;;17.02;12.02;;;;;;;18.90;40.53;99818.22;4070208;34;20077;31
2021/04/02 11:06:27;;;;;;;13.68;10.00;;;;;;;19.91;38.77;99762.38;4077664;34;20043;31
2021/04/02 11:18:59;;;;;;;12.63;9.50;;;;;;;21.41;36.75;99747.03;4092444;34;20116;31
2021/04/02 11:21:50;;;;;;;13.80;10.60;;;;;;;20.20;38.69;99732.78;4079839;34;20220;31
2021/04/02 11:27:09;;;;;;;15.50;9.20;;;;;;;20.64;39.15;99738.13;4105220;34;20274;31
2021/04/02 11:54:44;;;;;;;11.70;7.85;;;;;;;19.99;36.25;99697.28;4110535;34;20164;31
2021/04/02 12:00:07;;;;;;;11.50;8.57;;;;;;;20.19;36.38;99700.16;4104401;34;20427;31
2021/04/02 12:05:08;;;;;;;11.00;7.63;;;;;;;20.24;36.95;99680.00;4111118;34;20579;31
2021/04/02 12:10:28;;;;;;;9.50;7.47;;;;;;;21.58;33.58;99680.13;4104988;34;20141;31
2021/04/02 12:20:46;;;;;;;11.00;7.55;;;;;;;22.02;32.67;99660.28;4108298;34;20522;31
2021/04/02 12:23:22;;;;;;;12.85;7.60;;;;;;;21.57;33.43;99662.91;4108193;34;20155;31
2021/04/02 12:31:32;;;;;;;13.80;8.80;;;;;;;20.85;35.08;99653.03;4091815;34;20585;31
2021/04/02 12:44:00;;;;;;;23.50;15.70;;;;;;;20.77;35.49;99618.38;4106957;34;22215;31
2021/04/02 12:46:51;;;;;;;11.82;8.52;;;;;;;20.50;35.76;99634.97;4117038;34;20517;31
2021/04/02 12:54:18;;;;;;;20.23;18.08;;;;;;;21.01;34.91;99609.59;4107679;34;22248;31
2021/04/02 12:57:09;;;;;;;17.57;10.50;;;;;;;22.12;34.44;99624.91;4118105;34;20049;31
2021/04/02 13:07:51;;;;;;;11.75;8.95;;;;;;;20.84;35.43;99640.25;4090028;34;20212;31
2021/04/02 13:21:41;;;;;;;14.45;10.90;;;;;;;20.06;36.96;99637.41;4078042;34;20168;31
2021/04/02 13:24:22;;;;;;;47.42;20.10;;;;;;;19.65;36.90;99635.19;4085204;34;20527;31
2021/04/02 13:26:51;;;;;;;18.00;11.40;;;;;;;19.20;37.71;99606.59;4115789;34;20750;31
2021/04/02 13:29:42;;;;;;;13.57;10.30;;;;;;;19.23;37.75;99621.88;4102601;34;21201;31
2021/04/02 13:34:40;;;;;;;15.93;11.20;;;;;;;19.26;38.62;99586.38;4114059;34;20588;31
2021/04/02 13:37:31;;;;;;;16.20;11.60;;;;;;;19.63;38.26;99615.63;4099089;34;20050;31
2021/04/02 13:44:58;;;;;;;25.20;16.85;;;;;;;19.77;38.60;99581.88;4118694;34;22252;31
2021/04/02 13:47:49;;;;;;;18.30;12.87;;;;;;;19.64;37.96;99602.59;4101597;34;20661;31
2021/04/02 13:55:38;;;;;;;19.10;13.93;;;;;;;19.26;38.71;99601.00;4118218;34;20565;31
2021/04/02 14:13:08;;;;;;;18.45;13.30;;;;;;;19.88;37.74;99569.06;4119366;34;20517;31
2021/04/02 14:15:59;;;;;;;20.73;14.43;;;;;;;20.36;38.01;99593.84;4104230;34;20047;31
2021/04/02 14:26:17;;;;;;;29.05;17.90;;;;;;;20.34;37.71;99597.50;4114692;34;20614;31
2021/04/02 14:34:06;;;;;;;32.97;21.67;;;;;;;19.71;39.39;99584.91;4117676;34;20058;31
2021/04/02 14:39:04;;;;;;;18.80;14.00;;;;;;;19.46;39.24;99551.50;4094851;34;20111;31
2021/04/02 14:41:33;;;;;;;18.50;13.73;;;;;;;19.19;39.85;99568.88;4109998;34;20143;31
2021/04/02 14:44:24;;;;;;;18.50;12.10;;;;;;;19.56;39.02;99583.44;4094533;34;20726;31
2021/04/02 14:59:45;;;;;;;19.10;12.70;;;;;;;19.38;39.78;99543.47;4107132;34;20042;31
2021/04/02 15:04:43;;;;;;;17.80;12.80;;;;;;;19.32;39.43;99543.88;4116303;34;22611;31
2021/04/02 15:22:07;;;;;;;16.85;13.35;;;;;;;19.12;40.48;99552.19;4112599;34;21244;31
2021/04/02 15:24:36;;;;;;;18.52;13.73;;;;;;;19.11;39.98;99561.69;4092299;34;20032;31
2021/04/02 15:27:07;;;;;;;17.10;13.50;;;;;;;19.61;39.54;99573.63;4107525;34;20851;31
2021/04/02 15:57:19;;;;;;;16.45;11.95;;;;;;;19.16;39.60;99523.50;4104286;34;20082;31
2021/04/02 16:00:14;;;;;;;18.60;13.10;;;;;;;19.12;39.75;99540.13;4105381;34;20632;31
2021/04/02 16:17:59;;;;;;;24.60;16.38;;;;;;;18.40;44.59;99551.09;4118795;34;20038;31
2021/04/02 16:20:26;;;;;;;27.00;16.83;;;;;;;18.42;45.10;99551.81;3552760;40;20157;-69
2021/04/02 16:22:54;;;;;;;32.60;18.65;;;;;;;18.24;44.30;99549.66;3559930;40;20484;-73
2021/04/02 16:25:21;;;;;;;27.13;17.15;;;;;;;18.22;44.74;99556.66;3547103;40;20090;-70
2021/04/02 16:27:48;;;;;;;22.38;15.40;;;;;;;18.07;44.32;99561.88;3556621;40;21153;-70
2021/04/02 16:30:16;;;;;;;22.67;14.40;;;;;;;18.17;45.31;99573.22;3546247;40;20076;-70
2021/04/02 16:32:42;;;;;;;27.40;16.55;;;;;;;18.07;45.25;99571.34;3546220;40;20062;-68
2021/04/02 16:35:09;;;;;;;42.50;25.48;;;;;;;17.97;44.42;99586.53;3557931;40;20061;-72
2021/04/02 16:37:36;;;;;;;34.70;23.67;;;;;;;17.94;43.69;99604.75;3556233;40;20054;-71
2021/04/02 16:40:03;;;;;;;40.25;24.05;;;;;;;17.82;43.81;99633.84;3555982;40;20082;-71
2021/04/02 16:42:29;;;;;;;24.23;14.18;;;;;;;17.81;44.26;99629.59;3555042;40;20086;-72
2021/04/02 16:44:58;;;;;;;21.00;12.13;;;;;;;17.54;47.83;99626.19;3552670;40;20054;-68
2021/04/02 16:47:24;;;;;;;16.58;11.85;;;;;;;17.24;52.32;99634.00;3560284;40;20499;-69
2021/04/02 16:49:51;;;;;;;18.75;12.45;;;;;;;17.05;57.08;99620.63;3548129;40;20093;-70
2021/04/02 16:52:16;;;;;;;15.82;9.00;;;;;;;16.40;59.90;99619.31;3549852;40;20086;-69
2021/04/02 16:54:47;;;;;;;14.85;9.27;;;;;;;16.21;61.88;99620.47;3558666;40;20101;-71
2021/04/02 17:02:10;;;;;;;13.60;9.18;;;;;;;16.22;61.02;99622.13;3587933;40;20084;-70
2021/04/02 17:04:37;;;;;;;14.55;10.13;;;;;;;16.16;61.88;99620.72;3589076;40;20088;-71
2021/04/02 17:07:03;;;;;;;16.25;11.45;;;;;;;16.12;62.32;99662.03;3589110;40;20064;-70
2021/04/02 17:09:31;;;;;;;17.58;12.52;;;;;;;16.19;64.26;99694.09;3590347;39;20058;-70
2021/04/02 17:11:57;;;;;;;22.42;12.50;;;;;;;15.57;71.17;99705.19;3590164;40;20112;-69
2021/04/02 17:14:24;;;;;;;17.52;11.77;;;;;;;15.96;70.16;99691.97;3577933;40;20485;-68
2021/04/02 17:16:51;;;;;;;13.45;9.85;;;;;;;15.76;70.49;99684.53;3588355;40;20083;-71
2021/04/02 17:19:18;;;;;;;16.17;11.80;;;;;;;15.87;70.12;99669.38;3633187;34;20064;-70
2021/04/02 17:21:44;;;;;;;16.67;11.57;;;;;;;15.82;70.38;99656.84;3608174;39;20414;-71
2021/04/02 17:24:11;;;;;;;18.85;11.75;;;;;;;16.08;70.48;99663.94;3600246;40;20071;-73
2021/04/02 17:26:36;;;;;;;19.88;12.95;;;;;;;15.81;76.12;99675.69;3591799;40;20311;-70
2021/04/02 17:29:04;;;;;;;29.67;21.98;;;;;;;16.00;72.29;99685.78;3593110;40;20036;-71
2021/04/02 17:34:00;;;;;;;34.97;24.77;;;;;;;15.47;78.06;99679.22;3589837;39;20283;-71
2021/04/02 17:36:26;;;;;;;66.38;40.15;;;;;;;15.57;75.01;99700.88;3591891;40;20045;-70
2021/04/02 17:38:52;;;;;;;35.17;20.50;;;;;;;15.54;71.87;99678.00;3590540;39;20147;-70
2021/04/02 17:41:17;;;;;;;24.20;16.13;;;;;;;15.52;70.44;99674.69;3589416;40;20419;-70
2021/04/02 17:43:43;;;;;;;21.95;15.02;;;;;;;15.63;73.68;99682.63;3590889;40;20376;-69
2021/04/02 17:46:08;;;;;;;30.35;19.65;;;;;;;15.52;75.90;99704.63;3584867;40;20053;-70
2021/04/02 17:48:36;;;;;;;24.00;14.95;;;;;;;15.37;77.68;99684.91;3585384;40;20655;-71
2021/04/02 17:51:02;;;;;;;18.13;12.10;;;;;;;15.32;75.47;99679.16;3586996;40;20052;-69
2021/04/02 17:53:28;;;;;;;23.50;13.65;;;;;;;15.09;78.49;99662.44;3584978;40;20390;-70
2021/04/02 17:55:54;;;;;;;18.20;11.73;;;;;;;15.29;78.19;99638.38;3586943;40;20056;-70
2021/04/02 17:58:19;;;;;;;21.45;14.82;;;;;;;15.17;83.75;99659.50;3587407;40;20821;-70
2021/04/02 18:00:45;;;;;;;24.88;18.40;;;;;;;15.26;80.72;99641.06;3584371;40;20057;-69
2021/04/02 18:03:10;;;;;;;16.70;12.20;;;;;;;15.12;79.30;99626.44;3590503;39;20081;-70
2021/04/02 18:05:37;;;;;;;27.17;17.95;;;;;;;15.23;82.01;99649.72;3589611;39;20403;-70
2021/04/02 18:08:03;;;;;;;55.22;36.45;;;;;;;15.36;82.63;99652.47;3593861;40;20061;-71
2021/04/02 18:13:00;;;;;;;121.43;91.03;;;;;;;15.13;81.12;99658.78;3599140;39;20157;-71
2021/04/02 18:15:26;;;;;;;36.97;25.58;;;;;;;14.60;85.72;99681.97;3598596;40;20080;-69
2021/04/02 18:17:52;;;;;;;28.75;19.08;;;;;;;14.82;83.35;99670.66;3594432;40;20070;-70
2021/04/02 18:20:18;;;;;;;39.83;25.77;;;;;;;14.71;82.79;99661.84;3598156;40;20068;-70
2021/04/02 18:32:40;;;;;;;40.90;29.35;;;;;;;15.04;82.56;99664.41;3583400;40;20087;-71
2021/04/02 18:35:08;;;;;;;44.55;30.42;;;;;;;14.83;84.84;99680.84;3582444;40;20056;-68
2021/04/02 18:37:33;;;;;;;43.25;30.63;;;;;;;14.92;85.21;99692.34;3591542;40;20459;-71
2021/04/02 18:40:02;;;;;;;52.17;35.70;;;;;;;14.59;87.64;99687.19;3586926;40;20207;-71
2021/04/02 18:42:28;;;;;;;65.78;45.35;;;;;;;14.68;86.50;99691.84;3590897;40;20057;-68
2021/04/02 18:44:54;;;;;;;62.30;41.15;;;;;;;14.81;85.90;99694.63;3578394;40;20410;-69
2021/04/02 18:47:19;;;;;;;65.72;42.10;;;;;;;14.58;87.44;99701.69;3578670;40;20069;-69
2021/04/02 18:49:48;;;;;;;64.85;43.13;;;;;;;14.64;88.07;99700.56;3589542;40;20067;-71
2021/04/02 18:52:14;;;;;;;95.60;63.33;;;;;;;14.64;88.36;99698.84;3586637;40;20088;-70
2021/04/02 18:54:44;;;;;;;85.20;58.70;;;;;;;14.56;88.83;99707.78;3586328;40;20440;-69
2021/04/02 18:57:10;;;;;;;55.92;39.03;;;;;;;14.28;89.98;99710.03;3578462;40;20139;-69
2021/04/02 18:59:35;;;;;;;49.80;34.20;;;;;;;14.55;87.14;99701.88;3586737;40;20096;-69
2021/04/02 19:02:01;;;;;;;44.63;33.20;;;;;;;14.11;89.14;99692.88;3586331;40;20143;-68
2021/04/02 19:04:28;;;;;;;45.00;32.42;;;;;;;14.35;88.58;99703.72;3583002;40;20069;-69
2021/04/02 19:06:54;;;;;;;62.45;42.55;;;;;;;14.59;87.12;99702.53;3587830;40;20076;-69
2021/04/02 19:09:20;;;;;;;67.20;47.92;;;;;;;14.28;89.00;99708.28;3586337;40;20065;-68
2021/04/02 19:11:49;;;;;;;75.50;50.75;;;;;;;14.28;89.25;99713.41;3585316;40;20432;-69
2021/04/02 19:14:15;;;;;;;74.35;51.05;;;;;;;14.27;91.96;99716.00;3582797;40;20065;-70
2021/04/02 19:16:41;;;;;;;65.20;46.88;;;;;;;13.81;92.21;99717.28;3580119;40;20067;-68
2021/04/02 19:19:07;;;;;;;56.42;43.35;;;;;;;14.15;90.38;99721.69;3588041;40;20091;-69
2021/04/02 19:21:34;;;;;;;48.25;38.08;;;;;;;13.77;92.20;99726.00;3586587;40;20092;-70
2021/04/02 19:24:00;;;;;;;53.90;43.13;;;;;;;14.07;90.83;99729.72;3576426;40;20656;-70
2021/04/02 19:26:26;;;;;;;74.53;54.65;;;;;;;14.42;88.91;99718.69;3587444;40;20052;-69
2021/04/02 19:28:53;;;;;;;67.22;48.88;;;;;;;14.41;87.29;99717.03;3587244;40;20052;-71
2021/04/02 19:33:52;;;;;;;75.03;56.28;;;;;;;14.34;88.15;99715.66;3586116;40;20055;-70
2021/04/02 19:36:18;;;;;;;92.63;65.00;;;;;;;14.25;87.40;99718.63;3583283;40;20435;-68
2021/04/02 19:38:46;;;;;;;85.20;60.63;;;;;;;13.83;89.53;99723.16;3568980;40;20073;-68
2021/04/02 19:41:14;;;;;;;82.60;58.78;;;;;;;13.60;89.61;99721.66;3573541;40;20826;-69
2021/04/02 19:43:41;;;;;;;80.63;59.70;;;;;;;13.64;88.18;99730.84;3578022;40;20057;-68
2021/04/02 19:46:13;;;;;;;89.05;68.47;;;;;;;13.22;90.87;99742.91;3582714;40;20398;-71
2021/04/02 19:51:11;;;;;;;56.90;44.33;;;;;;;13.33;88.13;99748.38;4062987;34;20351;31
2021/04/02 19:53:37;;;;;;;52.03;38.45;;;;;;;13.24;86.45;99741.13;3565519;40;20280;-69
2021/04/02 19:56:05;;;;;;;48.08;34.92;;;;;;;13.51;86.49;99747.59;3565576;40;20045;-69
2021/04/02 19:58:31;;;;;;;42.33;29.58;;;;;;;13.06;87.03;99749.56;3569197;40;20482;-69
2021/04/02 20:00:57;;;;;;;37.13;26.63;;;;;;;13.04;86.77;99736.03;3565060;40;20166;-69
2021/04/02 20:03:22;;;;;;;36.05;26.05;;;;;;;13.14;87.54;99739.00;3564881;40;20057;-68
2021/04/02 20:05:49;;;;;;;27.80;22.05;;;;;;;12.89;89.74;99740.00;3567616;40;20060;-69
2021/04/02 20:08:15;;;;;;;27.25;21.08;;;;;;;13.04;87.29;99748.78;3557543;40;20061;-69
2021/04/02 20:10:41;;;;;;;28.98;21.85;;;;;;;12.95;88.56;99755.06;3566687;40;20171;-68
2021/04/02 20:13:06;;;;;;;30.48;23.35;;;;;;;13.14;88.16;99754.31;3566252;40;20377;-68
2021/04/02 20:15:32;;;;;;;35.05;28.00;;;;;;;13.13;89.85;99758.63;3565871;40;20060;-69
2021/04/02 20:17:58;;;;;;;27.98;22.40;;;;;;;13.24;87.55;99750.50;3566276;40;20385;-69
2021/04/02 20:20:24;;;;;;;29.35;21.08;;;;;;;13.42;86.46;99750.56;3565979;40;20070;-68
2021/04/02 20:22:51;;;;;;;33.75;23.90;;;;;;;13.04;88.68;99759.81;3553964;40;20076;-67
2021/04/02 20:25:19;;;;;;;38.58;25.90;;;;;;;13.34;87.50;99761.97;3565244;40;20050;-68
2021/04/02 20:27:44;;;;;;;44.25;29.42;;;;;;;13.28;87.84;99762.22;3533452;40;20222;-68
2021/04/02 20:30:18;;;;;;;45.03;30.23;;;;;;;13.35;87.15;99753.44;3535074;40;20090;-70
2021/04/02 20:32:44;;;;;;;46.47;31.13;;;;;;;13.29;88.17;99762.16;3535017;40;20058;-68
2021/04/02 20:35:11;;;;;;;42.50;28.08;;;;;;;13.29;88.16;99753.69;3534265;40;20059;-68
2021/04/02 20:37:37;;;;;;;42.13;31.10;;;;;;;13.13;87.92;99753.53;3533639;40;20143;-69
2021/04/02 20:40:05;;;;;;;40.35;26.98;;;;;;;13.19;87.20;99760.09;3534779;40;20101;-69
2021/04/02 20:42:31;;;;;;;36.38;25.63;;;;;;;13.11;87.37;99752.75;3533041;40;20119;-68
2021/04/02 20:44:56;;;;;;;34.05;24.55;;;;;;;13.12;88.69;99756.13;3533566;40;20066;-68
2021/04/02 20:47:23;;;;;;;39.17;25.25;;;;;;;13.17;88.43;99754.22;3534878;40;20084;-68
2021/04/02 20:49:50;;;;;;;31.77;22.65;;;;;;;13.15;87.52;99753.44;3534405;40;20055;-67
2021/04/02 20:52:15;;;;;;;45.58;28.08;;;;;;;12.98;88.40;99752.41;3536716;40;20074;-68
2021/04/02 20:54:41;;;;;;;21.83;16.83;;;;;;;13.20;86.03;99756.63;3543147;40;20070;-69
2021/04/02 20:57:07;;;;;;;21.27;16.92;;;;;;;13.02;88.12;99755.63;3543544;40;20074;-69
2021/04/02 20:59:33;;;;;;;22.50;17.30;;;;;;;12.74;89.77;99755.09;3569210;40;20144;-68
2021/04/02 21:02:00;;;;;;;18.88;16.70;;;;;;;13.13;88.06;99750.97;3576444;40;20053;-69
2021/04/02 21:04:26;;;;;;;21.52;17.27;;;;;;;13.11;88.43;99745.09;3571826;40;20136;-68
2021/04/02 21:06:52;;;;;;;23.67;17.48;;;;;;;13.28;86.44;99742.66;3574900;40;20100;-68
2021/04/02 21:09:18;;;;;;;21.70;16.17;;;;;;;12.96;87.55;99741.41;3574894;40;20165;-70
2021/04/02 21:11:43;;;;;;;26.23;18.08;;;;;;;13.12;87.02;99749.28;3565897;40;20144;-68
2021/04/02 21:14:09;;;;;;;21.48;18.02;;;;;;;13.35;87.86;99748.34;3575085;40;20064;-68
2021/04/02 21:16:35;;;;;;;20.17;17.80;;;;;;;13.12;86.55;99744.19;3576790;40;20041;-69
2021/04/02 21:19:00;;;;;;;22.63;16.77;;;;;;;13.31;85.52;99734.03;3575492;40;20343;-68
2021/04/02 21:21:26;;;;;;;24.15;17.65;;;;;;;13.07;87.05;99741.00;3575559;40;20077;-69
2021/04/02 21:23:52;;;;;;;21.20;17.13;;;;;;;13.43;85.13;99736.88;3576601;40;20050;-69
2021/04/02 21:26:19;;;;;;;24.58;17.23;;;;;;;13.36;84.38;99735.50;3566784;40;20049;-68
2021/04/02 21:28:45;;;;;;;19.98;16.55;;;;;;;13.53;84.08;99715.16;3576752;40;20038;-68
2021/04/02 21:31:10;;;;;;;19.63;15.93;;;;;;;13.68;83.37;99740.03;3575996;40;20055;-68
2021/04/02 21:33:36;;;;;;;19.60;16.35;;;;;;;13.80;82.96;99743.75;3575217;40;20076;-68
2021/04/02 21:36:02;;;;;;;23.70;17.70;;;;;;;13.57;82.69;99751.59;3574730;40;20364;-69
2021/04/02 21:38:29;;;;;;;27.77;19.95;;;;;;;13.55;83.12;99761.03;3574450;40;20096;-69
2021/04/02 21:40:55;;;;;;;22.92;18.88;;;;;;;13.43;83.60;99764.97;3574197;40;20296;-68
2021/04/02 21:43:22;;;;;;;24.38;19.92;;;;;;;13.37;85.52;99757.56;3575786;40;20054;-69
2021/04/02 21:45:49;;;;;;;24.55;18.80;;;;;;;12.22;90.06;99773.34;3565993;40;20046;-68
2021/04/02 21:48:16;;;;;;;23.73;18.58;;;;;;;12.31;89.29;99758.53;3575827;40;20542;-69
2021/04/02 21:56:04;;;;;;;21.25;17.45;;;;;;;12.12;88.02;99781.31;3566416;40;20323;-67
2021/04/02 21:58:30;;;;;;;20.98;17.02;;;;;;;12.10;88.45;99778.00;3553690;40;20097;-68
2021/04/02 22:00:55;;;;;;;18.65;16.13;;;;;;;12.22;87.00;99781.00;3544498;40;20145;-69
2021/04/02 22:03:22;;;;;;;25.08;18.30;;;;;;;12.28;85.73;99784.13;3554136;40;20164;-68
2021/04/02 22:05:48;;;;;;;22.27;17.35;;;;;;;12.33;86.50;99776.31;3553332;40;20057;-68
2021/04/02 22:08:15;;;;;;;20.73;16.92;;;;;;;12.30;86.00;99766.25;3552684;40;20069;-66
2021/04/02 22:10:42;;;;;;;25.90;17.73;;;;;;;12.27;86.89;99761.25;3554793;40;20480;-69
2021/04/02 22:13:08;;;;;;;21.95;16.15;;;;;;;12.33;85.65;99753.38;3523849;40;20074;-72
2021/04/02 22:15:34;;;;;;;20.30;16.08;;;;;;;12.50;85.91;99748.44;3539621;40;20098;-68
2021/04/02 22:18:02;;;;;;;20.65;15.80;;;;;;;12.35;87.25;99744.78;3546688;40;20051;-70
2021/04/02 22:20:36;;;;;;;65.65;56.33;;;;;;;12.39;86.22;99750.56;3553632;40;20100;-68
2021/04/02 22:23:10;;;;;;;101.47;90.25;;;;;;;12.24;86.44;99749.44;3553429;40;20057;-68
2021/04/02 22:25:42;;;;;;;49.75;41.10;;;;;;;12.25;86.42;99748.56;3541337;40;20421;-68
2021/04/02 22:28:08;;;;;;;24.98;19.65;;;;;;;12.13;87.36;99744.78;3541767;40;20090;-69
2021/04/02 22:30:38;;;;;;;22.13;16.10;;;;;;;12.26;86.52;99749.41;3541859;40;20161;-68
2021/04/02 22:33:05;;;;;;;20.48;15.73;;;;;;;12.20;86.89;99750.47;3541739;40;20063;-69